Terminal Aerodrome Forecast
Issued by NWS

Current Version | Previous Version | Graphics & Text | Print | Product List | Glossary On
Versions: 1 2 3 4 5 6 7 8 9 10 11 12 13 14 15 16 17 18 19 20 21 22 23 24
000
FTUS41 KPBZ 190420 AAB
TAFHLG
TAF AMD
KHLG 190420Z 1904/1924 28015G35KT 5SM -SHRA OVC008
     FM191000 28014G28KT P6SM VCSH OVC015
     FM191800 30012G25KT P6SM BKN025=

USA.gov is the U.S. government's official web portal to all federal, state and local government web resources and services.